Milwaukee, Wisconsin
Traffic Map
Current Weather Conditions
Milwaukee, Wisconsin
Broken Clouds
Broken Clouds
57°
Feels Like: 57°
Wind Chill: 57° Ceiling: 5500
Heat Index: 57° Visibility: 9mi
Dew Point: 54° Wind: 6mph
Humidity: 89% Direction: 210° (SSW)
Pressure: 29.78in Gusts: 0mph
Raw Report DataKMKE 231052Z 21005KT 9SM BKN055 BKN200 14/12 A2978 RMK AO2 SLP084 T01390122
Traffic Incident Summary
Active as of:
Severity:
Category:
InformationThere was an issue retrieving the traffic information for this location. Please try a different location or try again shortly.
Advertisements
Track Severe Weather on mobile